sensor_id;sensor_type;location;lat;lon;timestamp;P1;durP1;ratioP1;P2;durP2;ratioP2
43150;SDS011;28755;51.478;5.702;2023-08-07T00:00:12;14.43;;;2.88;;
43150;SDS011;28755;51.478;5.702;2023-08-07T00:02:38;15.93;;;2.50;;
43150;SDS011;28755;51.478;5.702;2023-08-07T00:05:04;16.48;;;2.95;;
43150;SDS011;28755;51.478;5.702;2023-08-07T00:07:31;18.65;;;2.90;;
43150;SDS011;28755;51.478;5.702;2023-08-07T00:09:56;17.63;;;3.42;;
43150;SDS011;28755;51.478;5.702;2023-08-07T00:12:22;18.17;;;3.15;;
43150;SDS011;28755;51.478;5.702;2023-08-07T00:14:49;17.98;;;3.22;;
43150;SDS011;28755;51.478;5.702;2023-08-07T00:17:15;14.63;;;2.90;;
43150;SDS011;28755;51.478;5.702;2023-08-07T00:19:41;19.00;;;3.85;;
43150;SDS011;28755;51.478;5.702;2023-08-07T00:22:06;19.20;;;2.78;;
43150;SDS011;28755;51.478;5.702;2023-08-07T00:24:32;21.15;;;3.88;;
43150;SDS011;28755;51.478;5.702;2023-08-07T00:26:57;17.75;;;3.65;;
43150;SDS011;28755;51.478;5.702;2023-08-07T00:29:23;13.27;;;3.40;;
43150;SDS011;28755;51.478;5.702;2023-08-07T00:31:48;18.27;;;4.38;;
43150;SDS011;28755;51.478;5.702;2023-08-07T00:34:14;16.45;;;3.30;;
43150;SDS011;28755;51.478;5.702;2023-08-07T00:36:40;12.50;;;2.75;;
43150;SDS011;28755;51.478;5.702;2023-08-07T00:39:05;16.23;;;3.08;;
43150;SDS011;28755;51.478;5.702;2023-08-07T00:41:32;11.52;;;2.45;;
43150;SDS011;28755;51.478;5.702;2023-08-07T00:43:58;14.93;;;2.95;;
43150;SDS011;28755;51.478;5.702;2023-08-07T00:46:24;10.43;;;2.38;;
43150;SDS011;28755;51.478;5.702;2023-08-07T00:48:49;11.60;;;2.53;;
43150;SDS011;28755;51.478;5.702;2023-08-07T00:51:17;14.38;;;2.42;;
43150;SDS011;28755;51.478;5.702;2023-08-07T00:53:44;13.18;;;2.78;;
43150;SDS011;28755;51.478;5.702;2023-08-07T00:56:10;11.95;;;2.60;;
43150;SDS011;28755;51.478;5.702;2023-08-07T00:58:36;10.55;;;1.83;;
43150;SDS011;28755;51.478;5.702;2023-08-07T01:01:02;9.32;;;2.83;;
43150;SDS011;28755;51.478;5.702;2023-08-07T01:03:28;10.32;;;2.30;;
43150;SDS011;28755;51.478;5.702;2023-08-07T01:05:53;10.02;;;2.20;;
43150;SDS011;28755;51.478;5.702;2023-08-07T01:08:19;14.65;;;2.55;;
43150;SDS011;28755;51.478;5.702;2023-08-07T01:13:40;11.32;;;2.40;;
43150;SDS011;28755;51.478;5.702;2023-08-07T01:18:43;12.52;;;2.40;;
43150;SDS011;28755;51.478;5.702;2023-08-07T01:21:18;14.00;;;2.55;;
43150;SDS011;28755;51.478;5.702;2023-08-07T01:23:44;18.48;;;2.80;;
43150;SDS011;28755;51.478;5.702;2023-08-07T01:26:13;14.32;;;3.00;;
43150;SDS011;28755;51.478;5.702;2023-08-07T01:28:42;11.52;;;2.70;;
43150;SDS011;28755;51.478;5.702;2023-08-07T01:31:28;18.10;;;2.92;;
43150;SDS011;28755;51.478;5.702;2023-08-07T01:33:57;14.30;;;2.85;;
43150;SDS011;28755;51.478;5.702;2023-08-07T01:36:25;13.57;;;2.50;;
43150;SDS011;28755;51.478;5.702;2023-08-07T01:38:52;16.48;;;2.75;;
43150;SDS011;28755;51.478;5.702;2023-08-07T01:41:19;17.15;;;3.33;;
43150;SDS011;28755;51.478;5.702;2023-08-07T01:43:45;15.98;;;2.42;;
43150;SDS011;28755;51.478;5.702;2023-08-07T01:46:10;12.13;;;2.75;;
43150;SDS011;28755;51.478;5.702;2023-08-07T01:48:36;15.80;;;3.60;;
43150;SDS011;28755;51.478;5.702;2023-08-07T01:51:01;14.57;;;2.78;;
43150;SDS011;28755;51.478;5.702;2023-08-07T01:53:27;16.27;;;2.95;;
43150;SDS011;28755;51.478;5.702;2023-08-07T01:55:53;12.55;;;2.70;;
43150;SDS011;28755;51.478;5.702;2023-08-07T01:58:18;14.50;;;2.75;;
43150;SDS011;28755;51.478;5.702;2023-08-07T02:00:44;15.13;;;2.75;;
43150;SDS011;28755;51.478;5.702;2023-08-07T02:03:10;18.15;;;3.20;;
43150;SDS011;28755;51.478;5.702;2023-08-07T02:05:35;15.38;;;3.00;;
43150;SDS011;28755;51.478;5.702;2023-08-07T02:08:01;13.80;;;2.80;;
43150;SDS011;28755;51.478;5.702;2023-08-07T02:10:26;12.32;;;2.70;;
43150;SDS011;28755;51.478;5.702;2023-08-07T02:12:53;12.20;;;3.03;;
43150;SDS011;28755;51.478;5.702;2023-08-07T02:15:18;13.13;;;3.55;;
43150;SDS011;28755;51.478;5.702;2023-08-07T02:17:44;17.92;;;3.22;;
43150;SDS011;28755;51.478;5.702;2023-08-07T02:20:10;12.43;;;3.05;;
43150;SDS011;28755;51.478;5.702;2023-08-07T02:22:36;13.68;;;2.60;;
43150;SDS011;28755;51.478;5.702;2023-08-07T02:25:02;9.05;;;2.40;;
43150;SDS011;28755;51.478;5.702;2023-08-07T02:27:27;13.13;;;2.63;;
43150;SDS011;28755;51.478;5.702;2023-08-07T02:29:53;12.75;;;2.78;;
43150;SDS011;28755;51.478;5.702;2023-08-07T02:32:19;14.00;;;2.65;;
43150;SDS011;28755;51.478;5.702;2023-08-07T02:34:44;13.85;;;2.75;;
43150;SDS011;28755;51.478;5.702;2023-08-07T02:37:10;13.80;;;2.95;;
43150;SDS011;28755;51.478;5.702;2023-08-07T02:39:36;13.38;;;3.13;;
43150;SDS011;28755;51.478;5.702;2023-08-07T02:42:02;16.48;;;3.40;;
43150;SDS011;28755;51.478;5.702;2023-08-07T02:44:28;16.27;;;3.60;;
43150;SDS011;28755;51.478;5.702;2023-08-07T02:46:53;14.50;;;3.03;;
43150;SDS011;28755;51.478;5.702;2023-08-07T02:49:19;11.77;;;3.08;;
43150;SDS011;28755;51.478;5.702;2023-08-07T02:51:45;10.80;;;3.22;;
43150;SDS011;28755;51.478;5.702;2023-08-07T02:54:10;12.38;;;3.30;;
43150;SDS011;28755;51.478;5.702;2023-08-07T02:56:36;16.00;;;3.55;;
43150;SDS011;28755;51.478;5.702;2023-08-07T02:59:01;17.23;;;3.42;;
43150;SDS011;28755;51.478;5.702;2023-08-07T03:01:27;10.25;;;3.17;;
43150;SDS011;28755;51.478;5.702;2023-08-07T03:03:53;18.08;;;3.72;;
43150;SDS011;28755;51.478;5.702;2023-08-07T03:06:19;14.10;;;2.90;;
43150;SDS011;28755;51.478;5.702;2023-08-07T03:08:44;12.13;;;3.08;;
43150;SDS011;28755;51.478;5.702;2023-08-07T03:11:10;14.18;;;3.10;;
43150;SDS011;28755;51.478;5.702;2023-08-07T03:13:35;11.90;;;3.17;;
43150;SDS011;28755;51.478;5.702;2023-08-07T03:16:01;17.65;;;3.70;;
43150;SDS011;28755;51.478;5.702;2023-08-07T03:18:29;18.52;;;3.58;;
43150;SDS011;28755;51.478;5.702;2023-08-07T03:20:58;15.65;;;3.22;;
43150;SDS011;28755;51.478;5.702;2023-08-07T03:23:24;12.32;;;3.00;;
43150;SDS011;28755;51.478;5.702;2023-08-07T03:25:50;16.20;;;3.22;;
43150;SDS011;28755;51.478;5.702;2023-08-07T03:28:16;14.65;;;3.13;;
43150;SDS011;28755;51.478;5.702;2023-08-07T03:30:42;14.25;;;3.45;;
43150;SDS011;28755;51.478;5.702;2023-08-07T03:33:09;14.45;;;3.47;;
43150;SDS011;28755;51.478;5.702;2023-08-07T03:35:35;11.80;;;3.28;;
43150;SDS011;28755;51.478;5.702;2023-08-07T03:38:01;16.25;;;3.55;;
43150;SDS011;28755;51.478;5.702;2023-08-07T03:40:26;18.27;;;3.60;;
43150;SDS011;28755;51.478;5.702;2023-08-07T03:42:52;15.00;;;3.40;;
43150;SDS011;28755;51.478;5.702;2023-08-07T03:45:17;15.70;;;3.70;;
43150;SDS011;28755;51.478;5.702;2023-08-07T03:47:43;14.57;;;4.00;;
43150;SDS011;28755;51.478;5.702;2023-08-07T03:50:09;16.48;;;3.40;;
43150;SDS011;28755;51.478;5.702;2023-08-07T03:52:34;12.52;;;3.08;;
43150;SDS011;28755;51.478;5.702;2023-08-07T03:55:00;16.55;;;3.40;;
43150;SDS011;28755;51.478;5.702;2023-08-07T03:57:25;17.30;;;4.13;;
43150;SDS011;28755;51.478;5.702;2023-08-07T03:59:51;12.57;;;3.10;;
43150;SDS011;28755;51.478;5.702;2023-08-07T04:02:16;12.27;;;3.45;;
43150;SDS011;28755;51.478;5.702;2023-08-07T04:04:42;18.33;;;3.85;;
43150;SDS011;28755;51.478;5.702;2023-08-07T04:07:07;13.13;;;3.10;;
43150;SDS011;28755;51.478;5.702;2023-08-07T04:09:33;15.80;;;3.67;;
43150;SDS011;28755;51.478;5.702;2023-08-07T04:11:58;22.27;;;3.42;;
43150;SDS011;28755;51.478;5.702;2023-08-07T04:14:24;20.17;;;4.40;;
43150;SDS011;28755;51.478;5.702;2023-08-07T04:16:49;12.70;;;3.65;;
43150;SDS011;28755;51.478;5.702;2023-08-07T04:19:15;13.73;;;3.45;;
43150;SDS011;28755;51.478;5.702;2023-08-07T04:21:41;16.05;;;3.70;;
43150;SDS011;28755;51.478;5.702;2023-08-07T04:24:06;17.67;;;3.45;;
43150;SDS011;28755;51.478;5.702;2023-08-07T04:26:38;15.98;;;3.50;;
43150;SDS011;28755;51.478;5.702;2023-08-07T04:29:04;14.68;;;3.80;;
43150;SDS011;28755;51.478;5.702;2023-08-07T04:31:30;15.45;;;3.67;;
43150;SDS011;28755;51.478;5.702;2023-08-07T04:33:56;12.80;;;3.33;;
43150;SDS011;28755;51.478;5.702;2023-08-07T04:36:25;18.13;;;3.90;;
43150;SDS011;28755;51.478;5.702;2023-08-07T04:38:50;16.17;;;3.90;;
43150;SDS011;28755;51.478;5.702;2023-08-07T04:41:16;16.90;;;3.65;;
43150;SDS011;28755;51.478;5.702;2023-08-07T04:43:42;18.73;;;3.70;;
43150;SDS011;28755;51.478;5.702;2023-08-07T04:46:08;20.88;;;4.30;;
43150;SDS011;28755;51.478;5.702;2023-08-07T04:48:34;15.50;;;3.40;;
43150;SDS011;28755;51.478;5.702;2023-08-07T04:51:03;17.77;;;3.92;;
43150;SDS011;28755;51.478;5.702;2023-08-07T04:53:28;8.25;;;2.90;;
43150;SDS011;28755;51.478;5.702;2023-08-07T04:55:54;17.42;;;3.65;;
43150;SDS011;28755;51.478;5.702;2023-08-07T04:58:19;13.35;;;3.15;;
43150;SDS011;28755;51.478;5.702;2023-08-07T05:00:45;11.70;;;3.30;;
43150;SDS011;28755;51.478;5.702;2023-08-07T05:03:10;11.48;;;3.10;;
43150;SDS011;28755;51.478;5.702;2023-08-07T05:05:36;13.20;;;3.65;;
43150;SDS011;28755;51.478;5.702;2023-08-07T05:08:02;15.38;;;3.53;;
43150;SDS011;28755;51.478;5.702;2023-08-07T05:10:27;9.50;;;3.17;;
43150;SDS011;28755;51.478;5.702;2023-08-07T05:12:53;15.02;;;2.90;;
43150;SDS011;28755;51.478;5.702;2023-08-07T05:15:24;14.88;;;2.92;;
43150;SDS011;28755;51.478;5.702;2023-08-07T05:17:50;14.07;;;2.83;;
43150;SDS011;28755;51.478;5.702;2023-08-07T05:20:16;10.43;;;3.08;;
43150;SDS011;28755;51.478;5.702;2023-08-07T05:22:42;11.80;;;3.13;;
43150;SDS011;28755;51.478;5.702;2023-08-07T05:25:08;14.02;;;2.88;;
43150;SDS011;28755;51.478;5.702;2023-08-07T05:27:34;14.00;;;3.28;;
43150;SDS011;28755;51.478;5.702;2023-08-07T05:30:00;8.38;;;2.83;;
43150;SDS011;28755;51.478;5.702;2023-08-07T05:32:26;10.25;;;2.60;;
43150;SDS011;28755;51.478;5.702;2023-08-07T05:34:53;9.35;;;2.40;;
43150;SDS011;28755;51.478;5.702;2023-08-07T05:37:18;12.52;;;2.00;;
43150;SDS011;28755;51.478;5.702;2023-08-07T05:39:44;10.52;;;2.63;;
43150;SDS011;28755;51.478;5.702;2023-08-07T05:42:09;7.70;;;2.35;;
43150;SDS011;28755;51.478;5.702;2023-08-07T05:44:35;15.02;;;2.20;;
43150;SDS011;28755;51.478;5.702;2023-08-07T05:47:00;12.10;;;2.88;;
43150;SDS011;28755;51.478;5.702;2023-08-07T05:49:26;9.10;;;2.45;;
43150;SDS011;28755;51.478;5.702;2023-08-07T05:51:52;10.23;;;2.33;;
43150;SDS011;28755;51.478;5.702;2023-08-07T05:54:18;11.98;;;2.35;;
43150;SDS011;28755;51.478;5.702;2023-08-07T05:56:44;9.93;;;2.30;;
43150;SDS011;28755;51.478;5.702;2023-08-07T05:59:09;10.45;;;2.53;;
43150;SDS011;28755;51.478;5.702;2023-08-07T06:01:35;9.52;;;2.70;;
43150;SDS011;28755;51.478;5.702;2023-08-07T06:04:02;10.90;;;2.85;;
43150;SDS011;28755;51.478;5.702;2023-08-07T06:06:27;14.90;;;2.85;;
43150;SDS011;28755;51.478;5.702;2023-08-07T06:08:54;10.48;;;2.50;;
43150;SDS011;28755;51.478;5.702;2023-08-07T06:11:19;14.45;;;3.20;;
43150;SDS011;28755;51.478;5.702;2023-08-07T06:13:45;11.98;;;2.92;;
43150;SDS011;28755;51.478;5.702;2023-08-07T06:16:11;11.98;;;3.25;;
43150;SDS011;28755;51.478;5.702;2023-08-07T06:18:36;19.08;;;2.92;;
43150;SDS011;28755;51.478;5.702;2023-08-07T06:21:02;13.73;;;3.33;;
43150;SDS011;28755;51.478;5.702;2023-08-07T06:23:32;16.30;;;3.00;;
43150;SDS011;28755;51.478;5.702;2023-08-07T06:26:01;9.73;;;3.15;;
43150;SDS011;28755;51.478;5.702;2023-08-07T06:28:31;12.95;;;3.05;;
43150;SDS011;28755;51.478;5.702;2023-08-07T06:31:01;16.30;;;3.30;;
43150;SDS011;28755;51.478;5.702;2023-08-07T06:33:28;15.00;;;3.20;;
43150;SDS011;28755;51.478;5.702;2023-08-07T06:35:54;11.30;;;2.97;;
43150;SDS011;28755;51.478;5.702;2023-08-07T06:38:19;19.17;;;3.88;;
43150;SDS011;28755;51.478;5.702;2023-08-07T06:40:45;13.02;;;2.70;;
43150;SDS011;28755;51.478;5.702;2023-08-07T06:43:10;16.42;;;3.65;;
43150;SDS011;28755;51.478;5.702;2023-08-07T06:45:36;10.35;;;2.58;;
43150;SDS011;28755;51.478;5.702;2023-08-07T06:48:02;16.17;;;3.05;;
43150;SDS011;28755;51.478;5.702;2023-08-07T06:50:27;16.00;;;3.58;;
43150;SDS011;28755;51.478;5.702;2023-08-07T06:52:53;15.73;;;3.05;;
43150;SDS011;28755;51.478;5.702;2023-08-07T06:55:19;13.60;;;2.88;;
43150;SDS011;28755;51.478;5.702;2023-08-07T06:57:45;17.52;;;2.78;;
43150;SDS011;28755;51.478;5.702;2023-08-07T07:00:10;17.15;;;3.00;;
43150;SDS011;28755;51.478;5.702;2023-08-07T07:02:36;12.43;;;3.17;;
43150;SDS011;28755;51.478;5.702;2023-08-07T07:05:02;12.88;;;2.70;;
43150;SDS011;28755;51.478;5.702;2023-08-07T07:07:29;11.52;;;2.60;;
43150;SDS011;28755;51.478;5.702;2023-08-07T07:09:55;18.85;;;3.00;;
43150;SDS011;28755;51.478;5.702;2023-08-07T07:12:22;9.70;;;2.30;;
43150;SDS011;28755;51.478;5.702;2023-08-07T07:14:48;15.63;;;2.47;;
43150;SDS011;28755;51.478;5.702;2023-08-07T07:17:14;14.23;;;2.25;;
43150;SDS011;28755;51.478;5.702;2023-08-07T07:19:39;7.85;;;2.40;;
43150;SDS011;28755;51.478;5.702;2023-08-07T07:22:05;12.40;;;2.35;;
43150;SDS011;28755;51.478;5.702;2023-08-07T07:24:30;19.30;;;2.72;;
43150;SDS011;28755;51.478;5.702;2023-08-07T07:26:56;13.57;;;2.17;;
43150;SDS011;28755;51.478;5.702;2023-08-07T07:29:22;9.98;;;1.88;;
43150;SDS011;28755;51.478;5.702;2023-08-07T07:31:47;17.00;;;2.45;;
43150;SDS011;28755;51.478;5.702;2023-08-07T07:34:14;14.85;;;2.25;;
43150;SDS011;28755;51.478;5.702;2023-08-07T07:36:39;10.25;;;2.45;;
43150;SDS011;28755;51.478;5.702;2023-08-07T07:39:05;15.40;;;2.03;;
43150;SDS011;28755;51.478;5.702;2023-08-07T07:41:30;9.60;;;2.20;;
43150;SDS011;28755;51.478;5.702;2023-08-07T07:43:56;11.93;;;2.72;;
43150;SDS011;28755;51.478;5.702;2023-08-07T07:46:22;22.13;;;2.40;;
43150;SDS011;28755;51.478;5.702;2023-08-07T07:48:48;13.75;;;2.55;;
43150;SDS011;28755;51.478;5.702;2023-08-07T07:51:14;19.40;;;2.90;;
43150;SDS011;28755;51.478;5.702;2023-08-07T07:53:40;13.60;;;2.60;;
43150;SDS011;28755;51.478;5.702;2023-08-07T07:56:05;10.80;;;2.45;;
43150;SDS011;28755;51.478;5.702;2023-08-07T07:58:31;9.20;;;2.17;;
43150;SDS011;28755;51.478;5.702;2023-08-07T08:00:56;12.27;;;2.95;;
43150;SDS011;28755;51.478;5.702;2023-08-07T08:03:22;8.90;;;2.20;;
43150;SDS011;28755;51.478;5.702;2023-08-07T08:05:50;14.05;;;2.85;;
43150;SDS011;28755;51.478;5.702;2023-08-07T08:08:16;11.13;;;2.00;;
43150;SDS011;28755;51.478;5.702;2023-08-07T08:10:42;11.30;;;2.13;;
43150;SDS011;28755;51.478;5.702;2023-08-07T08:13:09;9.75;;;2.13;;
43150;SDS011;28755;51.478;5.702;2023-08-07T08:15:35;12.63;;;3.05;;
43150;SDS011;28755;51.478;5.702;2023-08-07T08:18:01;10.82;;;2.70;;
43150;SDS011;28755;51.478;5.702;2023-08-07T08:20:26;25.08;;;2.55;;
43150;SDS011;28755;51.478;5.702;2023-08-07T08:22:52;12.80;;;2.50;;
43150;SDS011;28755;51.478;5.702;2023-08-07T08:25:18;11.45;;;2.28;;
43150;SDS011;28755;51.478;5.702;2023-08-07T08:27:43;12.15;;;2.22;;
43150;SDS011;28755;51.478;5.702;2023-08-07T08:30:09;7.78;;;2.58;;
43150;SDS011;28755;51.478;5.702;2023-08-07T08:32:35;10.07;;;2.13;;
43150;SDS011;28755;51.478;5.702;2023-08-07T08:35:00;8.98;;;2.53;;
43150;SDS011;28755;51.478;5.702;2023-08-07T08:37:26;7.60;;;2.30;;
43150;SDS011;28755;51.478;5.702;2023-08-07T08:39:52;13.27;;;2.28;;
43150;SDS011;28755;51.478;5.702;2023-08-07T08:42:17;10.07;;;2.90;;
43150;SDS011;28755;51.478;5.702;2023-08-07T08:44:45;6.80;;;2.08;;
43150;SDS011;28755;51.478;5.702;2023-08-07T08:47:20;11.35;;;2.00;;
43150;SDS011;28755;51.478;5.702;2023-08-07T08:49:47;11.02;;;2.35;;
43150;SDS011;28755;51.478;5.702;2023-08-07T08:54:43;11.27;;;2.50;;
43150;SDS011;28755;51.478;5.702;2023-08-07T08:57:09;11.55;;;1.90;;
43150;SDS011;28755;51.478;5.702;2023-08-07T08:59:36;10.45;;;2.67;;
43150;SDS011;28755;51.478;5.702;2023-08-07T09:02:02;7.05;;;1.42;;
43150;SDS011;28755;51.478;5.702;2023-08-07T09:04:29;13.25;;;2.20;;
43150;SDS011;28755;51.478;5.702;2023-08-07T09:06:55;12.13;;;2.08;;
43150;SDS011;28755;51.478;5.702;2023-08-07T09:09:20;11.38;;;2.17;;
43150;SDS011;28755;51.478;5.702;2023-08-07T09:11:47;13.88;;;1.92;;
43150;SDS011;28755;51.478;5.702;2023-08-07T09:14:15;6.13;;;1.73;;
43150;SDS011;28755;51.478;5.702;2023-08-07T09:16:45;11.40;;;2.38;;
43150;SDS011;28755;51.478;5.702;2023-08-07T09:19:13;13.35;;;2.45;;
43150;SDS011;28755;51.478;5.702;2023-08-07T09:21:39;15.60;;;2.60;;
43150;SDS011;28755;51.478;5.702;2023-08-07T09:24:04;9.88;;;2.20;;
43150;SDS011;28755;51.478;5.702;2023-08-07T09:26:31;7.35;;;1.70;;
43150;SDS011;28755;51.478;5.702;2023-08-07T09:28:58;13.68;;;2.53;;
43150;SDS011;28755;51.478;5.702;2023-08-07T09:31:24;12.10;;;1.60;;
43150;SDS011;28755;51.478;5.702;2023-08-07T09:33:51;9.73;;;2.30;;
43150;SDS011;28755;51.478;5.702;2023-08-07T09:36:17;10.95;;;2.03;;
43150;SDS011;28755;51.478;5.702;2023-08-07T09:38:43;8.65;;;1.85;;
43150;SDS011;28755;51.478;5.702;2023-08-07T09:41:15;8.75;;;1.88;;
43150;SDS011;28755;51.478;5.702;2023-08-07T09:43:42;9.02;;;2.28;;
43150;SDS011;28755;51.478;5.702;2023-08-07T09:46:08;8.40;;;1.85;;
43150;SDS011;28755;51.478;5.702;2023-08-07T09:48:40;5.00;;;1.50;;
43150;SDS011;28755;51.478;5.702;2023-08-07T09:51:07;6.28;;;1.70;;
43150;SDS011;28755;51.478;5.702;2023-08-07T09:53:34;12.32;;;1.83;;
43150;SDS011;28755;51.478;5.702;2023-08-07T09:56:00;6.85;;;1.95;;
43150;SDS011;28755;51.478;5.702;2023-08-07T09:58:26;5.55;;;1.75;;
43150;SDS011;28755;51.478;5.702;2023-08-07T10:00:52;7.00;;;2.22;;
43150;SDS011;28755;51.478;5.702;2023-08-07T10:03:18;6.25;;;2.00;;
43150;SDS011;28755;51.478;5.702;2023-08-07T10:05:45;6.82;;;1.58;;
43150;SDS011;28755;51.478;5.702;2023-08-07T10:08:11;8.88;;;1.65;;
43150;SDS011;28755;51.478;5.702;2023-08-07T10:10:37;7.82;;;1.63;;
43150;SDS011;28755;51.478;5.702;2023-08-07T10:13:04;6.32;;;1.60;;
43150;SDS011;28755;51.478;5.702;2023-08-07T10:15:31;5.40;;;1.58;;
43150;SDS011;28755;51.478;5.702;2023-08-07T10:17:57;6.90;;;1.50;;
43150;SDS011;28755;51.478;5.702;2023-08-07T10:20:27;9.70;;;2.00;;
43150;SDS011;28755;51.478;5.702;2023-08-07T10:22:56;7.05;;;1.60;;
43150;SDS011;28755;51.478;5.702;2023-08-07T10:25:25;6.22;;;1.60;;
43150;SDS011;28755;51.478;5.702;2023-08-07T10:27:53;7.20;;;2.10;;
43150;SDS011;28755;51.478;5.702;2023-08-07T10:30:21;6.72;;;1.45;;
43150;SDS011;28755;51.478;5.702;2023-08-07T10:32:48;7.00;;;1.70;;
43150;SDS011;28755;51.478;5.702;2023-08-07T10:35:25;6.75;;;1.95;;
43150;SDS011;28755;51.478;5.702;2023-08-07T10:37:51;8.40;;;1.77;;
43150;SDS011;28755;51.478;5.702;2023-08-07T10:40:22;8.23;;;1.52;;
43150;SDS011;28755;51.478;5.702;2023-08-07T10:45:22;4.70;;;1.35;;
43150;SDS011;28755;51.478;5.702;2023-08-07T10:50:33;7.25;;;1.60;;
43150;SDS011;28755;51.478;5.702;2023-08-07T10:53:03;3.85;;;1.20;;
43150;SDS011;28755;51.478;5.702;2023-08-07T10:55:44;5.13;;;1.27;;
43150;SDS011;28755;51.478;5.702;2023-08-07T10:58:29;3.75;;;1.10;;
43150;SDS011;28755;51.478;5.702;2023-08-07T11:03:52;3.58;;;1.27;;
43150;SDS011;28755;51.478;5.702;2023-08-07T11:06:26;5.65;;;1.55;;
43150;SDS011;28755;51.478;5.702;2023-08-07T11:09:05;3.17;;;1.17;;
43150;SDS011;28755;51.478;5.702;2023-08-07T11:14:08;4.47;;;1.17;;
43150;SDS011;28755;51.478;5.702;2023-08-07T11:16:37;6.82;;;1.33;;
43150;SDS011;28755;51.478;5.702;2023-08-07T11:19:06;6.75;;;1.40;;
43150;SDS011;28755;51.478;5.702;2023-08-07T11:21:33;2.88;;;1.38;;
43150;SDS011;28755;51.478;5.702;2023-08-07T11:24:00;2.88;;;1.38;;
43150;SDS011;28755;51.478;5.702;2023-08-07T11:26:29;4.75;;;1.20;;
43150;SDS011;28755;51.478;5.702;2023-08-07T11:28:58;6.25;;;1.50;;
43150;SDS011;28755;51.478;5.702;2023-08-07T11:31:26;3.40;;;1.15;;
43150;SDS011;28755;51.478;5.702;2023-08-07T11:34:16;6.25;;;1.77;;
43150;SDS011;28755;51.478;5.702;2023-08-07T11:37:00;5.70;;;1.50;;
43150;SDS011;28755;51.478;5.702;2023-08-07T11:39:26;2.83;;;1.20;;
43150;SDS011;28755;51.478;5.702;2023-08-07T11:41:51;4.18;;;1.17;;
43150;SDS011;28755;51.478;5.702;2023-08-07T11:44:17;2.95;;;1.10;;
43150;SDS011;28755;51.478;5.702;2023-08-07T11:46:43;3.28;;;1.45;;
43150;SDS011;28755;51.478;5.702;2023-08-07T11:49:09;2.60;;;1.30;;
43150;SDS011;28755;51.478;5.702;2023-08-07T11:51:35;3.90;;;1.50;;
43150;SDS011;28755;51.478;5.702;2023-08-07T11:54:01;4.75;;;1.42;;
43150;SDS011;28755;51.478;5.702;2023-08-07T11:56:27;5.53;;;1.90;;
43150;SDS011;28755;51.478;5.702;2023-08-07T11:58:53;5.13;;;1.50;;
43150;SDS011;28755;51.478;5.702;2023-08-07T12:01:19;5.88;;;2.00;;
43150;SDS011;28755;51.478;5.702;2023-08-07T12:06:23;5.28;;;1.67;;
43150;SDS011;28755;51.478;5.702;2023-08-07T12:08:50;8.15;;;1.80;;
43150;SDS011;28755;51.478;5.702;2023-08-07T12:11:18;5.45;;;1.40;;
43150;SDS011;28755;51.478;5.702;2023-08-07T12:13:46;7.38;;;1.38;;
43150;SDS011;28755;51.478;5.702;2023-08-07T12:16:12;4.20;;;1.42;;
43150;SDS011;28755;51.478;5.702;2023-08-07T12:18:48;5.43;;;1.70;;
43150;SDS011;28755;51.478;5.702;2023-08-07T12:21:16;7.18;;;1.60;;
43150;SDS011;28755;51.478;5.702;2023-08-07T12:23:48;5.13;;;1.35;;
43150;SDS011;28755;51.478;5.702;2023-08-07T12:26:14;8.60;;;1.67;;
43150;SDS011;28755;51.478;5.702;2023-08-07T12:28:41;5.82;;;1.75;;
43150;SDS011;28755;51.478;5.702;2023-08-07T12:31:06;6.50;;;1.85;;
43150;SDS011;28755;51.478;5.702;2023-08-07T12:33:32;3.83;;;1.67;;
43150;SDS011;28755;51.478;5.702;2023-08-07T12:35:58;3.65;;;1.48;;
43150;SDS011;28755;51.478;5.702;2023-08-07T12:38:24;5.68;;;1.48;;
43150;SDS011;28755;51.478;5.702;2023-08-07T12:40:50;6.90;;;1.50;;
43150;SDS011;28755;51.478;5.702;2023-08-07T12:43:16;4.05;;;1.55;;
43150;SDS011;28755;51.478;5.702;2023-08-07T12:45:42;5.75;;;1.70;;
43150;SDS011;28755;51.478;5.702;2023-08-07T12:48:07;6.55;;;1.40;;
43150;SDS011;28755;51.478;5.702;2023-08-07T12:50:33;6.10;;;2.28;;
43150;SDS011;28755;51.478;5.702;2023-08-07T12:52:59;9.27;;;1.80;;
43150;SDS011;28755;51.478;5.702;2023-08-07T12:55:25;6.13;;;1.77;;
43150;SDS011;28755;51.478;5.702;2023-08-07T12:57:51;6.82;;;1.75;;
43150;SDS011;28755;51.478;5.702;2023-08-07T13:00:17;6.90;;;1.80;;
43150;SDS011;28755;51.478;5.702;2023-08-07T13:02:47;12.00;;;1.83;;
43150;SDS011;28755;51.478;5.702;2023-08-07T13:05:14;3.95;;;1.63;;
43150;SDS011;28755;51.478;5.702;2023-08-07T13:07:41;5.72;;;1.70;;
43150;SDS011;28755;51.478;5.702;2023-08-07T13:10:08;8.25;;;1.80;;
43150;SDS011;28755;51.478;5.702;2023-08-07T13:12:36;6.63;;;1.90;;
43150;SDS011;28755;51.478;5.702;2023-08-07T13:15:04;6.97;;;2.25;;
43150;SDS011;28755;51.478;5.702;2023-08-07T13:17:30;5.53;;;1.70;;
43150;SDS011;28755;51.478;5.702;2023-08-07T13:19:57;7.68;;;2.28;;
43150;SDS011;28755;51.478;5.702;2023-08-07T13:22:24;9.90;;;2.53;;
43150;SDS011;28755;51.478;5.702;2023-08-07T13:24:50;8.18;;;2.40;;
43150;SDS011;28755;51.478;5.702;2023-08-07T13:27:15;8.98;;;2.70;;
43150;SDS011;28755;51.478;5.702;2023-08-07T13:29:41;9.05;;;2.30;;
43150;SDS011;28755;51.478;5.702;2023-08-07T13:32:06;6.30;;;2.72;;
43150;SDS011;28755;51.478;5.702;2023-08-07T13:34:34;8.13;;;2.58;;
43150;SDS011;28755;51.478;5.702;2023-08-07T13:37:01;8.25;;;2.55;;
43150;SDS011;28755;51.478;5.702;2023-08-07T13:39:27;6.13;;;2.30;;
43150;SDS011;28755;51.478;5.702;2023-08-07T13:41:53;9.95;;;2.75;;
43150;SDS011;28755;51.478;5.702;2023-08-07T13:44:19;8.40;;;2.47;;
43150;SDS011;28755;51.478;5.702;2023-08-07T13:46:45;12.68;;;2.42;;
43150;SDS011;28755;51.478;5.702;2023-08-07T13:49:12;5.43;;;2.20;;
43150;SDS011;28755;51.478;5.702;2023-08-07T13:51:38;7.43;;;2.28;;
43150;SDS011;28755;51.478;5.702;2023-08-07T13:54:04;11.35;;;2.40;;
43150;SDS011;28755;51.478;5.702;2023-08-07T13:56:29;6.93;;;2.42;;
43150;SDS011;28755;51.478;5.702;2023-08-07T13:58:55;9.05;;;2.42;;
43150;SDS011;28755;51.478;5.702;2023-08-07T14:01:20;6.22;;;2.25;;
43150;SDS011;28755;51.478;5.702;2023-08-07T14:03:46;8.57;;;2.28;;
43150;SDS011;28755;51.478;5.702;2023-08-07T14:06:12;8.35;;;2.60;;
43150;SDS011;28755;51.478;5.702;2023-08-07T14:08:37;4.03;;;2.17;;
43150;SDS011;28755;51.478;5.702;2023-08-07T14:11:03;9.88;;;2.47;;
43150;SDS011;28755;51.478;5.702;2023-08-07T14:13:29;5.95;;;2.00;;
43150;SDS011;28755;51.478;5.702;2023-08-07T14:15:55;4.60;;;1.88;;
43150;SDS011;28755;51.478;5.702;2023-08-07T14:18:20;4.40;;;2.13;;
43150;SDS011;28755;51.478;5.702;2023-08-07T14:20:46;4.68;;;2.00;;
43150;SDS011;28755;51.478;5.702;2023-08-07T14:23:12;6.15;;;1.80;;
43150;SDS011;28755;51.478;5.702;2023-08-07T14:25:37;7.28;;;2.05;;
43150;SDS011;28755;51.478;5.702;2023-08-07T14:28:03;4.72;;;2.45;;
43150;SDS011;28755;51.478;5.702;2023-08-07T14:30:29;5.78;;;2.00;;
43150;SDS011;28755;51.478;5.702;2023-08-07T14:32:55;5.22;;;2.00;;
43150;SDS011;28755;51.478;5.702;2023-08-07T14:35:20;4.63;;;1.70;;
43150;SDS011;28755;51.478;5.702;2023-08-07T14:37:46;4.35;;;1.90;;
43150;SDS011;28755;51.478;5.702;2023-08-07T14:40:13;8.43;;;2.10;;
43150;SDS011;28755;51.478;5.702;2023-08-07T14:42:39;5.63;;;1.65;;
43150;SDS011;28755;51.478;5.702;2023-08-07T14:45:05;7.20;;;2.17;;
43150;SDS011;28755;51.478;5.702;2023-08-07T14:47:31;4.03;;;1.98;;
43150;SDS011;28755;51.478;5.702;2023-08-07T14:49:56;6.35;;;1.92;;
43150;SDS011;28755;51.478;5.702;2023-08-07T14:52:22;5.60;;;2.25;;
43150;SDS011;28755;51.478;5.702;2023-08-07T14:54:47;8.80;;;2.20;;
43150;SDS011;28755;51.478;5.702;2023-08-07T14:57:13;9.00;;;1.90;;